首页
METAR-TAF:

METAR-TAF

机场 :

弗尔沙茨, 塞尔维亚

纬度: 45-09N, 经度: 021-19E, 海拔: 83米

当前天气观测

该预报发布于34分钟前的01:00 UTC
风速2节,风向多变
温度 18°C
湿度 100%
气压 1015 hPa
能见度10公里或以上
散云层高于3300英尺

METAR: LYVR 190100Z VRB02KT 9999 SCT033 18/18 Q1015 NOSIG

时间: 03:34 (01:34 UTC)

预报

该预报发布于2小时和34分钟前的23:00 UTC
预报有效从19日的 00点(UTC)到 19日的 24点(UTC)
风速6节,风向南转南东
能见度10公里或以上
1500米以下无云,无积雨云
短暂存在
从 19日的 02点(UTC)到 19日的 05点(UTC)
能見度: 1000
轻雾
短暂存在
从 19日的 06点(UTC)到 19日的 09点(UTC)
散云层高于3000英尺, 塔状积云.
阵雨
短暂存在
从 19日的 12点(UTC)到 19日的 16点(UTC)
能見度: 4000
散云层高于3000英尺, 积雨云.
散云层高于4000英尺
雷暴, 雨

TAF: LYVR 182300Z 1900/1924 16006KT CAVOK TX30/1914Z TN16/1903Z TEMPO 1902/1905 1000 BR TEMPO 1906/1909 SHRA SCT030TCU TEMPO 1912/1916 4000 TSRA SCT030CB SCT040

超过4000个机场的气象观测和天气预报(METAR&TAF报告)。

可查询的气象台以黄色和红色小点在地图上表示。

将鼠标移到小点上方,可查看气象台名称。

然后点击查看天气观测和预报。

如需切换地图:点击带黑十字的绿色按钮放大地图;点击带横线的绿色按钮缩小地图;或者点击绿色箭头查看邻近地区的地图。


METAR-TAF: